River Falls, WI

4:58 AM CST on November 27, 2014 (GMT -0600)
Sterling Ponds | Change Station
CLOSE
Current Station
Personal Weather Station
Location: River Falls, WI
Elevation: 925 ft
Nearby Weather Stations

Elev 925 ft 44.89 °N, 92.64 °W | Updated 1 second ago

Clear
Clear
1.5 °F
Feels Like 1 °F
N
0.0
Wind Variable Wind from ENE
Gusts 6.0 mph

Today
High -- | Low -- °F
--% Chance of Precip.
Yesterday
High -- | Low -- °F
Precip. -- in
7:23 AM 4:32 PM
Waxing Crescent, 28% visible
Pressure 30.45 in
Visibility 10.0 miles
Clouds Clear
Windchill 1 °F
Dew Point -3 °F
Humidity 80%
Rainfall 0.00 in
Snow Depth Not available.
UV 0 out of 12
Pollen .10 out of 12
Air Quality Not available.
Flu Activity Not available.
METAR K21D 271011Z AUTO 35006KT 10SM CLR M16/M19 A3045 RMK AO2

More Conditions Fewer Conditions

Pressure 30.45 in
Visibility 10.0 miles
Clouds Clear
Windchill 1 °F
Dew Point -3 °F
Humidity 80%
Rainfall 0.00 in
Snow Depth Not available.
UV 0 out of 12
Pollen .10 out of 12
Air Quality Not available.
Flu Activity Not available.
METAR K21D 271011Z AUTO 35006KT 10SM CLR M16/M19 A3045 RMK AO2

More Conditions Fewer Conditions

10-Day Weather Forecast

Almanac

Astronomy

Nov. 27, 2014 Rise Set
Actual Time
Civil Twilight
Nautical Twilight
Astronomical Twilight
Moon
Length of Visible Light
Length of Day
Tomorrow will be .
, % of the Moon is Illuminated

Today's Extremes

State Highs State Lows

Community

WunderPhotos

Upload Photos

1,773,968 photos uploaded!

WunderBlogs® & News

Nearby

Air Quality

  Air Quality AQ Index Pollutant
Not available.

Snow Depth

Station Depth Elevation

Earthquake Activity

City Distance Mag. Time & Date
Minimum magnitude displayed is 2.5.

Coastal Water Temperatures

Place Temperature

Nearby Weather Stations